Sioux City, IA

2:39 AM CDT en Septiembre 18, 2014 (GMT -0500)
Northside Jones House | Change Station
CLOSE
Current Station
Estación meteorológica personal
Location: Sioux City, IA
Altura: 1253 ft
Estaciones meteorológicas cercanas

Alt 1253 ft 42.55 °N, 96.41 °W | Updated 10 minutes ago

Parcialmente nublado
Parcialmente nublado
60.0 ° F
Sensación térmica 60.0 ° F
N
0.0
Viento Variable Viento desde OSO
Gusts 2.0 mph

Hoy
Alta -- | Baja -- ° F
--% Posibilidad de precipitaciones
Ayer
Alta -- | Baja -- ° F
Precip. -- pul
7:08 AM 7:29 PM
Creciente menguante, 29% visible
Presión 29.97 pul
Visibilidad 10.0 Millas
Nubes Despejado
Punto de rocío 53 ° F
Humedad 77%
Precipitaciones -999.00 pul
Espesor de la nieve No disponible.
UV 0 de una escala de 12
Polen 5.00 de una escala de 12
Calidad del aire No disponible.
Flu Activity No disponible.
METAR KSUX 180652Z AUTO 12005KT 10SM CLR 15/13 A2998 RMK AO2 SLP148 T01500133

More Conditions Fewer Conditions

Presión 29.97 pul
Visibilidad 10.0 Millas
Nubes Despejado
Punto de rocío 53 ° F
Humedad 77%
Precipitaciones -999.00 pul
Espesor de la nieve No disponible.
UV 0 de una escala de 12
Polen 5.00 de una escala de 12
Calidad del aire No disponible.
Flu Activity No disponible.
METAR KSUX 180652Z AUTO 12005KT 10SM CLR 15/13 A2998 RMK AO2 SLP148 T01500133

More Conditions Fewer Conditions

10-Day Weather Forecast

Almanac

Astronomía

Sep. 18, 2014 Salida Puesta
Hora real 7:08 AM CDT 7:29 PM CDT
Crepúsculo civil 6:40 AM CDT 7:58 PM CDT
Crepúsculo náutico 6:07 AM CDT 8:31 PM CDT
Crepúsculo astronómico 5:33 AM CDT 9:05 PM CDT
Luna 1:56 AM CDT 4:26 PM CDT
Horas de luz 13h 17m
Horas de luz
12h 21m
Tomorrow will be 2m 52s shorter.
Creciente menguante, 29% of the Moon is Illuminated
Hoy
Creciente menguante
Sep 24
Nueva
Oct 1
Cuarto creciente
Oct 8
Luna llena
Oct 15
Cuarto menguante

Extremos de hoy

Máximos del estado Bajos del estado

Community

WunderPhotos

Upload Photos

1,754,299 ¡fotos cargadas!

Nearby

Grosos de nieve

Estación Profundido Altura
No tenemos constancia de nieve nueva.

Actividad de terremotos

Ciudad Distance Mag. Tiempo y dato
No hay informes recientes de la actividad sísmica.
Magnitud mínima muestra es 2,5.

Temperaturas de aguas costeras

Lugar Temperatura
Sin partes meteorológicos de las estaciones

Estaciones meteorológicas cercanas